createdAt,value
2023-02-03T00:09:00.066Z,3.40
2023-02-03T00:24:04.173Z,4.10
2023-02-03T00:39:08.635Z,4.10
2023-02-03T00:54:14.208Z,3.70
2023-02-03T01:09:18.524Z,2.80
2023-02-03T01:24:22.557Z,3.23
2023-02-03T01:39:27.286Z,2.33
2023-02-03T01:54:33.745Z,2.40
2023-02-03T02:09:38.067Z,2.27
2023-02-03T02:25:05.278Z,3.57
2023-02-03T02:40:22.265Z,2.83
2023-02-03T02:55:29.013Z,3.13
2023-02-03T03:10:37.667Z,2.47
2023-02-03T03:25:44.903Z,3.33
2023-02-03T03:41:02.509Z,2.90
2023-02-03T03:56:08.566Z,3.10
2023-02-03T04:11:33.816Z,2.97
2023-02-03T04:26:38.132Z,3.03
2023-02-03T04:41:42.694Z,6.17
2023-02-03T04:56:47.038Z,3.23
2023-02-03T05:11:51.396Z,3.50
2023-02-03T05:26:55.584Z,3.43
2023-02-03T05:41:59.855Z,4.83
2023-02-03T05:57:04.108Z,3.37
2023-02-03T06:12:09.008Z,4.43
2023-02-03T06:27:13.409Z,3.73
2023-02-03T06:42:17.598Z,3.20
2023-02-03T06:57:22.069Z,4.53
2023-02-03T07:12:26.310Z,3.33
2023-02-03T07:27:30.544Z,5.33
2023-02-03T07:42:34.880Z,3.87
2023-02-03T07:57:44.106Z,4.00
2023-02-03T08:12:49.109Z,4.10
2023-02-03T08:27:54.126Z,3.57
2023-02-03T08:42:58.379Z,3.73
2023-02-03T08:58:03.354Z,2.97
2023-02-03T09:13:07.554Z,2.90
2023-02-03T09:28:11.852Z,4.00
2023-02-03T09:43:18.429Z,3.70
2023-02-03T09:58:23.997Z,3.67
2023-02-03T10:13:33.044Z,2.97
2023-02-03T10:28:46.515Z,3.10
2023-02-03T10:43:56.005Z,2.97
2023-02-03T10:59:03.194Z,2.97
2023-02-03T11:14:07.383Z,3.30
2023-02-03T11:29:32.354Z,3.90
2023-02-03T11:44:37.198Z,3.00
2023-02-03T12:00:02.051Z,3.27
2023-02-03T12:15:08.800Z,2.87
2023-02-03T12:30:15.590Z,4.57
2023-02-03T12:45:21.173Z,3.40
2023-02-03T13:00:34.898Z,2.90
2023-02-03T13:15:45.228Z,3.10
2023-02-03T13:30:58.219Z,2.80
2023-02-03T13:46:02.988Z,3.57
2023-02-03T14:01:10.043Z,4.57
2023-02-03T14:16:35.864Z,4.30
2023-02-03T14:31:55.010Z,6.03
2023-02-03T14:47:15.498Z,4.97
2023-02-03T15:02:23.546Z,6.27
2023-02-03T15:17:31.457Z,5.00
2023-02-03T15:32:38.897Z,5.10
2023-02-03T15:47:49.125Z,8.30
2023-02-03T16:02:53.798Z,4.97
2023-02-03T16:18:00.694Z,4.17
2023-02-03T16:33:24.037Z,5.50
2023-02-03T16:48:47.577Z,6.67
2023-02-03T17:03:51.812Z,3.83
2023-02-03T17:18:56.398Z,8.17
2023-02-03T17:34:01.589Z,14.10
2023-02-03T18:04:27.635Z,2.50
2023-02-03T18:19:32.018Z,2.20
2023-02-03T18:34:36.038Z,3.27
2023-02-03T18:49:41.617Z,2.50
2023-02-03T19:04:46.093Z,3.50
2023-02-03T19:19:50.778Z,2.40
2023-02-03T19:34:55.366Z,1.77
2023-02-03T19:49:59.545Z,2.43
2023-02-03T20:05:03.803Z,13.80
2023-02-03T20:20:08.185Z,16.60
2023-02-03T20:35:13.503Z,17.87
2023-02-03T21:05:36.356Z,24.40
2023-02-03T21:20:40.622Z,19.40
2023-02-03T21:35:45.177Z,22.17
2023-02-03T21:50:49.342Z,18.60
2023-02-03T22:05:56.446Z,15.50
2023-02-03T22:21:00.566Z,12.30
2023-02-03T22:36:07.217Z,14.27
2023-02-03T22:51:11.494Z,14.30
2023-02-03T23:06:16.616Z,15.20
2023-02-03T23:21:20.315Z,12.97
2023-02-03T23:36:25.042Z,15.07
2023-02-03T23:51:29.335Z,11.97
